Corcoran, Minnesota
Current Conditions -  °F | °C
As of 8:53 PM on Monday 22 Dec 2014 (Local Time) from KMIC Reporting Station
Light Rain Light Rain  
Wind Chill: 32°   Ceiling: 1300
Heat Index: 37°   Visibility: 5mi
Dew Point: 34°   Wind: 7mph
Humidity: 89%   Direction: 70°ENE
Pressure: 29.61"   Gusts: NA
Location:  45.0992°N, 93.4917°W
Report Text: KMIC 230253Z 07006KT 5SM -RA BR OVC013 03/01 A2961 RMK AO2 SLP034 P0000 60001 T00280011 51005
Loading
Personal Weather Stations






























Interactive Weather Map New forecast layout! Learn more

10-Day Weather Forecast

Advertisements
Track Severe Weather on mobile